sensor_id;sensor_type;location;lat;lon;timestamp;P1;durP1;ratioP1;P2;durP2;ratioP2
74245;SDS011;62601;51.044;13.788;2024-03-23T00:55:40;11.77;;;9.48;;
74245;SDS011;62601;51.044;13.788;2024-03-23T00:58:00;10.38;;;8.95;;
74245;SDS011;62601;51.044;13.788;2024-03-23T01:00:21;12.77;;;10.30;;
74245;SDS011;62601;51.044;13.788;2024-03-23T01:02:43;12.07;;;10.35;;
74245;SDS011;62601;51.044;13.788;2024-03-23T01:05:03;11.63;;;10.23;;
74245;SDS011;62601;51.044;13.788;2024-03-23T01:07:26;12.90;;;9.38;;
74245;SDS011;62601;51.044;13.788;2024-03-23T01:09:46;12.27;;;10.68;;
74245;SDS011;62601;51.044;13.788;2024-03-23T01:12:07;13.43;;;10.10;;
74245;SDS011;62601;51.044;13.788;2024-03-23T01:14:27;13.00;;;10.70;;
74245;SDS011;62601;51.044;13.788;2024-03-23T01:16:47;13.73;;;10.70;;
74245;SDS011;62601;51.044;13.788;2024-03-23T01:19:08;11.93;;;10.57;;
74245;SDS011;62601;51.044;13.788;2024-03-23T01:21:30;18.17;;;11.85;;
74245;SDS011;62601;51.044;13.788;2024-03-23T01:23:51;14.25;;;11.15;;
74245;SDS011;62601;51.044;13.788;2024-03-23T01:26:12;17.25;;;11.55;;
74245;SDS011;62601;51.044;13.788;2024-03-23T01:28:34;14.50;;;11.80;;
74245;SDS011;62601;51.044;13.788;2024-03-23T01:30:54;14.02;;;11.45;;
74245;SDS011;62601;51.044;13.788;2024-03-23T01:33:15;15.02;;;12.40;;
74245;SDS011;62601;51.044;13.788;2024-03-23T01:35:37;21.40;;;12.02;;
74245;SDS011;62601;51.044;13.788;2024-03-23T01:37:58;15.57;;;12.18;;
74245;SDS011;62601;51.044;13.788;2024-03-23T01:40:18;18.90;;;12.93;;
74245;SDS011;62601;51.044;13.788;2024-03-23T01:42:40;19.27;;;13.32;;
74245;SDS011;62601;51.044;13.788;2024-03-23T01:45:01;16.83;;;12.48;;
74245;SDS011;62601;51.044;13.788;2024-03-23T01:47:22;17.58;;;13.30;;
74245;SDS011;62601;51.044;13.788;2024-03-23T01:49:44;17.85;;;12.95;;
74245;SDS011;62601;51.044;13.788;2024-03-23T01:52:05;16.45;;;12.73;;
74245;SDS011;62601;51.044;13.788;2024-03-23T01:54:27;22.88;;;13.95;;
74245;SDS011;62601;51.044;13.788;2024-03-23T01:56:48;19.60;;;13.70;;
74245;SDS011;62601;51.044;13.788;2024-03-23T01:59:09;18.52;;;14.75;;
74245;SDS011;62601;51.044;13.788;2024-03-23T02:01:31;26.92;;;15.18;;
74245;SDS011;62601;51.044;13.788;2024-03-23T02:03:53;18.75;;;13.70;;
74245;SDS011;62601;51.044;13.788;2024-03-23T02:06:13;22.27;;;15.43;;
74245;SDS011;62601;51.044;13.788;2024-03-23T02:08:34;22.10;;;15.20;;
74245;SDS011;62601;51.044;13.788;2024-03-23T02:10:55;20.15;;;14.90;;
74245;SDS011;62601;51.044;13.788;2024-03-23T02:13:17;20.92;;;15.38;;
74245;SDS011;62601;51.044;13.788;2024-03-23T02:15:39;20.77;;;15.75;;
74245;SDS011;62601;51.044;13.788;2024-03-23T02:18:00;21.50;;;14.80;;
74245;SDS011;62601;51.044;13.788;2024-03-23T02:20:22;19.13;;;15.55;;
74245;SDS011;62601;51.044;13.788;2024-03-23T02:22:43;22.85;;;16.73;;
74245;SDS011;62601;51.044;13.788;2024-03-23T02:25:05;23.33;;;16.92;;
74245;SDS011;62601;51.044;13.788;2024-03-23T02:27:26;27.65;;;16.73;;
74245;SDS011;62601;51.044;13.788;2024-03-23T02:29:46;23.63;;;16.80;;
74245;SDS011;62601;51.044;13.788;2024-03-23T02:32:08;23.70;;;16.25;;
74245;SDS011;62601;51.044;13.788;2024-03-23T02:34:29;19.95;;;14.50;;
74245;SDS011;62601;51.044;13.788;2024-03-23T02:36:49;23.95;;;16.00;;
74245;SDS011;62601;51.044;13.788;2024-03-23T02:39:11;23.95;;;17.30;;
74245;SDS011;62601;51.044;13.788;2024-03-23T02:41:32;22.40;;;16.45;;
74245;SDS011;62601;51.044;13.788;2024-03-23T02:43:53;21.83;;;15.85;;
74245;SDS011;62601;51.044;13.788;2024-03-23T02:46:15;19.25;;;14.25;;
74245;SDS011;62601;51.044;13.788;2024-03-23T02:48:36;20.15;;;15.13;;
74245;SDS011;62601;51.044;13.788;2024-03-23T02:50:57;22.08;;;16.17;;
74245;SDS011;62601;51.044;13.788;2024-03-23T02:53:18;22.60;;;14.77;;
74245;SDS011;62601;51.044;13.788;2024-03-23T02:55:40;22.55;;;15.45;;
74245;SDS011;62601;51.044;13.788;2024-03-23T02:58:01;19.65;;;15.18;;
74245;SDS011;62601;51.044;13.788;2024-03-23T03:00:23;18.60;;;13.32;;
74245;SDS011;62601;51.044;13.788;2024-03-23T03:02:44;21.77;;;14.32;;
74245;SDS011;62601;51.044;13.788;2024-03-23T03:05:05;19.95;;;13.60;;
74245;SDS011;62601;51.044;13.788;2024-03-23T03:07:27;19.33;;;13.65;;
74245;SDS011;62601;51.044;13.788;2024-03-23T03:09:48;19.70;;;14.25;;
74245;SDS011;62601;51.044;13.788;2024-03-23T03:12:09;15.90;;;12.40;;
74245;SDS011;62601;51.044;13.788;2024-03-23T03:14:31;15.13;;;12.73;;
74245;SDS011;62601;51.044;13.788;2024-03-23T03:16:53;15.63;;;11.80;;
74245;SDS011;62601;51.044;13.788;2024-03-23T03:19:15;16.00;;;12.07;;
74245;SDS011;62601;51.044;13.788;2024-03-23T03:21:36;17.00;;;12.32;;
74245;SDS011;62601;51.044;13.788;2024-03-23T03:23:58;18.98;;;14.00;;
74245;SDS011;62601;51.044;13.788;2024-03-23T03:26:19;15.60;;;12.40;;
74245;SDS011;62601;51.044;13.788;2024-03-23T03:28:41;16.08;;;12.27;;
74245;SDS011;62601;51.044;13.788;2024-03-23T03:31:02;18.80;;;13.57;;
74245;SDS011;62601;51.044;13.788;2024-03-23T03:33:24;18.63;;;13.95;;
74245;SDS011;62601;51.044;13.788;2024-03-23T03:35:45;19.27;;;13.30;;
74245;SDS011;62601;51.044;13.788;2024-03-23T03:38:07;19.42;;;14.80;;
74245;SDS011;62601;51.044;13.788;2024-03-23T03:40:28;17.05;;;13.80;;
74245;SDS011;62601;51.044;13.788;2024-03-23T03:42:49;20.17;;;14.05;;
74245;SDS011;62601;51.044;13.788;2024-03-23T03:45:11;18.92;;;13.55;;
74245;SDS011;62601;51.044;13.788;2024-03-23T03:47:32;18.15;;;13.48;;
74245;SDS011;62601;51.044;13.788;2024-03-23T03:49:53;20.30;;;15.18;;
74245;SDS011;62601;51.044;13.788;2024-03-23T03:52:15;20.05;;;14.40;;
74245;SDS011;62601;51.044;13.788;2024-03-23T03:54:35;20.80;;;14.80;;
74245;SDS011;62601;51.044;13.788;2024-03-23T03:56:55;17.13;;;13.13;;
74245;SDS011;62601;51.044;13.788;2024-03-23T03:59:17;21.08;;;14.70;;
74245;SDS011;62601;51.044;13.788;2024-03-23T04:01:38;19.30;;;13.70;;
74245;SDS011;62601;51.044;13.788;2024-03-23T04:04:00;23.10;;;15.02;;
74245;SDS011;62601;51.044;13.788;2024-03-23T04:06:21;19.45;;;14.70;;
74245;SDS011;62601;51.044;13.788;2024-03-23T04:08:42;18.90;;;14.35;;
74245;SDS011;62601;51.044;13.788;2024-03-23T04:11:04;19.00;;;14.38;;
74245;SDS011;62601;51.044;13.788;2024-03-23T04:13:25;20.67;;;14.73;;
74245;SDS011;62601;51.044;13.788;2024-03-23T04:15:47;19.88;;;14.60;;
74245;SDS011;62601;51.044;13.788;2024-03-23T04:18:08;21.48;;;15.98;;
74245;SDS011;62601;51.044;13.788;2024-03-23T04:20:30;23.88;;;17.65;;
74245;SDS011;62601;51.044;13.788;2024-03-23T04:22:51;22.33;;;15.77;;
74245;SDS011;62601;51.044;13.788;2024-03-23T04:25:13;23.73;;;16.90;;
74245;SDS011;62601;51.044;13.788;2024-03-23T04:27:34;27.08;;;17.27;;
74245;SDS011;62601;51.044;13.788;2024-03-23T04:29:55;24.63;;;16.77;;
74245;SDS011;62601;51.044;13.788;2024-03-23T04:32:17;24.50;;;17.63;;
74245;SDS011;62601;51.044;13.788;2024-03-23T04:34:38;24.27;;;17.75;;
74245;SDS011;62601;51.044;13.788;2024-03-23T04:36:59;24.85;;;16.90;;
74245;SDS011;62601;51.044;13.788;2024-03-23T04:39:21;24.73;;;17.00;;
74245;SDS011;62601;51.044;13.788;2024-03-23T04:41:42;25.08;;;16.40;;
74245;SDS011;62601;51.044;13.788;2024-03-23T04:44:04;23.00;;;15.90;;
74245;SDS011;62601;51.044;13.788;2024-03-23T04:46:26;26.08;;;17.00;;
74245;SDS011;62601;51.044;13.788;2024-03-23T04:48:48;22.77;;;16.05;;
74245;SDS011;62601;51.044;13.788;2024-03-23T04:51:09;24.52;;;16.33;;
74245;SDS011;62601;51.044;13.788;2024-03-23T04:53:31;22.83;;;15.65;;
74245;SDS011;62601;51.044;13.788;2024-03-23T04:55:52;22.88;;;15.50;;
74245;SDS011;62601;51.044;13.788;2024-03-23T04:58:14;22.00;;;15.07;;
74245;SDS011;62601;51.044;13.788;2024-03-23T05:00:35;21.70;;;15.52;;
74245;SDS011;62601;51.044;13.788;2024-03-23T05:02:55;20.00;;;14.75;;
74245;SDS011;62601;51.044;13.788;2024-03-23T05:05:17;20.52;;;15.25;;
74245;SDS011;62601;51.044;13.788;2024-03-23T05:07:38;20.27;;;14.05;;
74245;SDS011;62601;51.044;13.788;2024-03-23T05:10:00;19.73;;;13.95;;
74245;SDS011;62601;51.044;13.788;2024-03-23T05:12:20;20.50;;;14.02;;
74245;SDS011;62601;51.044;13.788;2024-03-23T05:14:41;17.25;;;13.43;;
74245;SDS011;62601;51.044;13.788;2024-03-23T05:17:03;18.17;;;14.32;;
74245;SDS011;62601;51.044;13.788;2024-03-23T05:19:26;20.17;;;15.18;;
74245;SDS011;62601;51.044;13.788;2024-03-23T05:21:49;22.80;;;15.70;;
74245;SDS011;62601;51.044;13.788;2024-03-23T05:24:09;24.42;;;15.80;;
74245;SDS011;62601;51.044;13.788;2024-03-23T05:26:31;27.27;;;15.98;;
74245;SDS011;62601;51.044;13.788;2024-03-23T05:28:51;22.45;;;16.50;;
74245;SDS011;62601;51.044;13.788;2024-03-23T05:31:12;24.70;;;17.38;;
74245;SDS011;62601;51.044;13.788;2024-03-23T05:33:42;23.63;;;17.25;;
74245;SDS011;62601;51.044;13.788;2024-03-23T05:36:02;23.48;;;16.88;;
74245;SDS011;62601;51.044;13.788;2024-03-23T05:38:22;27.13;;;18.02;;
74245;SDS011;62601;51.044;13.788;2024-03-23T05:40:42;26.73;;;17.33;;
74245;SDS011;62601;51.044;13.788;2024-03-23T05:43:12;26.23;;;18.45;;
74245;SDS011;62601;51.044;13.788;2024-03-23T05:45:32;24.48;;;17.13;;
74245;SDS011;62601;51.044;13.788;2024-03-23T05:47:52;27.38;;;17.60;;
74245;SDS011;62601;51.044;13.788;2024-03-23T05:50:13;24.83;;;17.20;;
74245;SDS011;62601;51.044;13.788;2024-03-23T05:52:33;25.65;;;17.48;;
74245;SDS011;62601;51.044;13.788;2024-03-23T05:54:58;26.02;;;17.38;;
74245;SDS011;62601;51.044;13.788;2024-03-23T05:57:18;30.48;;;19.95;;
74245;SDS011;62601;51.044;13.788;2024-03-23T05:59:39;28.55;;;19.23;;
74245;SDS011;62601;51.044;13.788;2024-03-23T06:01:59;21.10;;;15.57;;
74245;SDS011;62601;51.044;13.788;2024-03-23T06:04:19;25.50;;;16.75;;
74245;SDS011;62601;51.044;13.788;2024-03-23T06:06:39;22.08;;;15.32;;
74245;SDS011;62601;51.044;13.788;2024-03-23T06:08:59;24.60;;;16.77;;
74245;SDS011;62601;51.044;13.788;2024-03-23T06:11:19;23.33;;;17.38;;
74245;SDS011;62601;51.044;13.788;2024-03-23T06:13:40;24.30;;;16.48;;
74245;SDS011;62601;51.044;13.788;2024-03-23T06:16:00;23.38;;;16.13;;
74245;SDS011;62601;51.044;13.788;2024-03-23T06:18:21;24.15;;;17.90;;
74245;SDS011;62601;51.044;13.788;2024-03-23T06:20:41;23.77;;;17.20;;
74245;SDS011;62601;51.044;13.788;2024-03-23T06:23:01;26.38;;;17.20;;
74245;SDS011;62601;51.044;13.788;2024-03-23T06:25:21;25.88;;;17.65;;
74245;SDS011;62601;51.044;13.788;2024-03-23T06:27:41;28.88;;;18.05;;
74245;SDS011;62601;51.044;13.788;2024-03-23T06:30:01;24.25;;;15.75;;
74245;SDS011;62601;51.044;13.788;2024-03-23T06:32:22;26.02;;;16.95;;
74245;SDS011;62601;51.044;13.788;2024-03-23T06:34:42;25.88;;;17.25;;
74245;SDS011;62601;51.044;13.788;2024-03-23T06:37:02;24.45;;;16.95;;
74245;SDS011;62601;51.044;13.788;2024-03-23T06:39:22;27.02;;;19.23;;
74245;SDS011;62601;51.044;13.788;2024-03-23T06:41:43;27.98;;;18.10;;
74245;SDS011;62601;51.044;13.788;2024-03-23T06:44:03;28.35;;;18.33;;
74245;SDS011;62601;51.044;13.788;2024-03-23T06:46:23;28.63;;;18.48;;
74245;SDS011;62601;51.044;13.788;2024-03-23T06:48:44;26.52;;;18.30;;
74245;SDS011;62601;51.044;13.788;2024-03-23T06:51:04;26.00;;;17.83;;
74245;SDS011;62601;51.044;13.788;2024-03-23T06:53:24;26.85;;;17.73;;
74245;SDS011;62601;51.044;13.788;2024-03-23T06:55:49;26.70;;;17.83;;
74245;SDS011;62601;51.044;13.788;2024-03-23T06:58:10;25.17;;;18.10;;
74245;SDS011;62601;51.044;13.788;2024-03-23T07:00:30;26.23;;;18.02;;
74245;SDS011;62601;51.044;13.788;2024-03-23T07:02:51;27.15;;;18.48;;
74245;SDS011;62601;51.044;13.788;2024-03-23T07:05:11;25.85;;;18.05;;
74245;SDS011;62601;51.044;13.788;2024-03-23T07:07:31;27.98;;;17.92;;
74245;SDS011;62601;51.044;13.788;2024-03-23T07:09:51;25.88;;;17.50;;
74245;SDS011;62601;51.044;13.788;2024-03-23T07:12:11;32.10;;;18.83;;
74245;SDS011;62601;51.044;13.788;2024-03-23T07:14:31;24.13;;;16.27;;
74245;SDS011;62601;51.044;13.788;2024-03-23T07:16:52;27.92;;;17.30;;
74245;SDS011;62601;51.044;13.788;2024-03-23T07:19:12;25.73;;;17.58;;
74245;SDS011;62601;51.044;13.788;2024-03-23T07:21:32;26.08;;;17.75;;
74245;SDS011;62601;51.044;13.788;2024-03-23T07:23:52;27.98;;;17.75;;
74245;SDS011;62601;51.044;13.788;2024-03-23T07:26:12;29.88;;;18.73;;
74245;SDS011;62601;51.044;13.788;2024-03-23T07:28:32;26.63;;;18.00;;
74245;SDS011;62601;51.044;13.788;2024-03-23T07:33:22;24.38;;;16.08;;
74245;SDS011;62601;51.044;13.788;2024-03-23T07:35:42;23.23;;;17.48;;
74245;SDS011;62601;51.044;13.788;2024-03-23T07:38:02;25.90;;;16.40;;
74245;SDS011;62601;51.044;13.788;2024-03-23T07:40:22;26.23;;;17.75;;
74245;SDS011;62601;51.044;13.788;2024-03-23T07:42:42;27.63;;;17.83;;
74245;SDS011;62601;51.044;13.788;2024-03-23T07:45:02;27.23;;;17.50;;
74245;SDS011;62601;51.044;13.788;2024-03-23T07:47:23;21.55;;;16.13;;
74245;SDS011;62601;51.044;13.788;2024-03-23T07:49:43;25.52;;;17.00;;
74245;SDS011;62601;51.044;13.788;2024-03-23T07:52:03;24.27;;;18.02;;
74245;SDS011;62601;51.044;13.788;2024-03-23T07:54:23;22.98;;;17.00;;
74245;SDS011;62601;51.044;13.788;2024-03-23T07:56:43;25.63;;;17.80;;
74245;SDS011;62601;51.044;13.788;2024-03-23T07:59:03;22.58;;;16.90;;
74245;SDS011;62601;51.044;13.788;2024-03-23T08:01:23;24.63;;;17.25;;
74245;SDS011;62601;51.044;13.788;2024-03-23T08:03:44;30.30;;;18.23;;
74245;SDS011;62601;51.044;13.788;2024-03-23T08:06:12;24.58;;;17.45;;
74245;SDS011;62601;51.044;13.788;2024-03-23T08:08:32;28.40;;;17.05;;
74245;SDS011;62601;51.044;13.788;2024-03-23T08:10:52;26.00;;;18.25;;
74245;SDS011;62601;51.044;13.788;2024-03-23T08:13:12;21.23;;;16.05;;
74245;SDS011;62601;51.044;13.788;2024-03-23T08:15:32;23.23;;;16.50;;
74245;SDS011;62601;51.044;13.788;2024-03-23T08:17:52;24.60;;;17.17;;
74245;SDS011;62601;51.044;13.788;2024-03-23T08:20:12;24.00;;;16.05;;
74245;SDS011;62601;51.044;13.788;2024-03-23T08:22:32;23.17;;;16.50;;
74245;SDS011;62601;51.044;13.788;2024-03-23T08:24:53;23.52;;;15.65;;
74245;SDS011;62601;51.044;13.788;2024-03-23T08:27:13;21.40;;;16.52;;
74245;SDS011;62601;51.044;13.788;2024-03-23T08:29:34;24.98;;;17.25;;
74245;SDS011;62601;51.044;13.788;2024-03-23T08:31:54;23.13;;;15.75;;
74245;SDS011;62601;51.044;13.788;2024-03-23T08:34:14;23.27;;;17.40;;
74245;SDS011;62601;51.044;13.788;2024-03-23T08:36:34;23.65;;;16.27;;
74245;SDS011;62601;51.044;13.788;2024-03-23T08:38:54;23.85;;;16.27;;
74245;SDS011;62601;51.044;13.788;2024-03-23T08:41:14;21.08;;;15.40;;
74245;SDS011;62601;51.044;13.788;2024-03-23T08:43:41;21.90;;;16.15;;
74245;SDS011;62601;51.044;13.788;2024-03-23T08:46:11;21.52;;;15.90;;
74245;SDS011;62601;51.044;13.788;2024-03-23T08:48:31;27.13;;;20.48;;
74245;SDS011;62601;51.044;13.788;2024-03-23T08:51:25;21.63;;;15.70;;
74245;SDS011;62601;51.044;13.788;2024-03-23T08:53:39;19.75;;;14.80;;
74245;SDS011;62601;51.044;13.788;2024-03-23T08:56:00;19.63;;;13.75;;
74245;SDS011;62601;51.044;13.788;2024-03-23T08:58:20;18.88;;;14.00;;
74245;SDS011;62601;51.044;13.788;2024-03-23T09:00:40;19.20;;;15.23;;
74245;SDS011;62601;51.044;13.788;2024-03-23T09:03:00;19.73;;;14.05;;
74245;SDS011;62601;51.044;13.788;2024-03-23T09:05:20;18.70;;;14.18;;
74245;SDS011;62601;51.044;13.788;2024-03-23T09:07:40;18.75;;;14.80;;
74245;SDS011;62601;51.044;13.788;2024-03-23T09:10:00;18.08;;;14.15;;
74245;SDS011;62601;51.044;13.788;2024-03-23T09:12:20;18.75;;;14.85;;
74245;SDS011;62601;51.044;13.788;2024-03-23T09:14:41;18.23;;;14.02;;
74245;SDS011;62601;51.044;13.788;2024-03-23T09:17:01;21.55;;;15.02;;
74245;SDS011;62601;51.044;13.788;2024-03-23T09:19:21;21.50;;;16.17;;
74245;SDS011;62601;51.044;13.788;2024-03-23T09:21:41;19.80;;;15.10;;
74245;SDS011;62601;51.044;13.788;2024-03-23T09:24:01;23.40;;;15.70;;
74245;SDS011;62601;51.044;13.788;2024-03-23T09:26:21;19.73;;;14.45;;
74245;SDS011;62601;51.044;13.788;2024-03-23T09:28:41;19.50;;;14.82;;
74245;SDS011;62601;51.044;13.788;2024-03-23T09:31:02;16.33;;;13.90;;
74245;SDS011;62601;51.044;13.788;2024-03-23T09:33:22;17.38;;;14.13;;
74245;SDS011;62601;51.044;13.788;2024-03-23T09:35:42;21.35;;;14.38;;
74245;SDS011;62601;51.044;13.788;2024-03-23T09:38:03;16.35;;;13.07;;
74245;SDS011;62601;51.044;13.788;2024-03-23T09:40:23;15.90;;;13.75;;
74245;SDS011;62601;51.044;13.788;2024-03-23T09:42:43;20.33;;;11.98;;
74245;SDS011;62601;51.044;13.788;2024-03-23T09:45:11;13.98;;;11.65;;
74245;SDS011;62601;51.044;13.788;2024-03-23T09:47:35;14.23;;;12.10;;
74245;SDS011;62601;51.044;13.788;2024-03-23T09:49:55;19.17;;;14.57;;
74245;SDS011;62601;51.044;13.788;2024-03-23T09:52:15;18.42;;;13.80;;
74245;SDS011;62601;51.044;13.788;2024-03-23T09:54:36;16.35;;;13.50;;
74245;SDS011;62601;51.044;13.788;2024-03-23T09:56:56;20.27;;;12.13;;
74245;SDS011;62601;51.044;13.788;2024-03-23T09:59:16;18.30;;;12.00;;
74245;SDS011;62601;51.044;13.788;2024-03-23T10:01:36;16.70;;;9.38;;
74245;SDS011;62601;51.044;13.788;2024-03-23T10:03:56;8.25;;;5.45;;
74245;SDS011;62601;51.044;13.788;2024-03-23T10:06:16;8.50;;;4.55;;
74245;SDS011;62601;51.044;13.788;2024-03-23T10:08:41;5.20;;;3.10;;
74245;SDS011;62601;51.044;13.788;2024-03-23T10:11:14;4.07;;;2.30;;
74245;SDS011;62601;51.044;13.788;2024-03-23T10:13:34;6.53;;;2.33;;
74245;SDS011;62601;51.044;13.788;2024-03-23T10:15:58;3.20;;;2.00;;
74245;SDS011;62601;51.044;13.788;2024-03-23T10:18:19;3.88;;;1.20;;
74245;SDS011;62601;51.044;13.788;2024-03-23T10:20:39;1.23;;;1.05;;
74245;SDS011;62601;51.044;13.788;2024-03-23T10:22:59;0.85;;;0.80;;
74245;SDS011;62601;51.044;13.788;2024-03-23T10:25:22;5.82;;;3.05;;
74245;SDS011;62601;51.044;13.788;2024-03-23T10:27:42;4.10;;;3.63;;
74245;SDS011;62601;51.044;13.788;2024-03-23T10:30:10;1.23;;;0.80;;
74245;SDS011;62601;51.044;13.788;2024-03-23T10:32:30;1.85;;;0.70;;
74245;SDS011;62601;51.044;13.788;2024-03-23T10:34:50;1.02;;;0.73;;
74245;SDS011;62601;51.044;13.788;2024-03-23T10:37:10;1.42;;;0.68;;
74245;SDS011;62601;51.044;13.788;2024-03-23T10:39:34;1.17;;;0.50;;
74245;SDS011;62601;51.044;13.788;2024-03-23T10:41:54;0.73;;;0.40;;
74245;SDS011;62601;51.044;13.788;2024-03-23T10:44:19;0.90;;;0.50;;
74245;SDS011;62601;51.044;13.788;2024-03-23T10:46:39;0.98;;;0.80;;
74245;SDS011;62601;51.044;13.788;2024-03-23T10:48:59;3.17;;;1.40;;
74245;SDS011;62601;51.044;13.788;2024-03-23T10:51:19;0.70;;;0.70;;
74245;SDS011;62601;51.044;13.788;2024-03-23T10:53:40;0.90;;;0.80;;
74245;SDS011;62601;51.044;13.788;2024-03-23T10:56:00;1.00;;;0.90;;
74245;SDS011;62601;51.044;13.788;2024-03-23T10:58:24;0.80;;;0.80;;
74245;SDS011;62601;51.044;13.788;2024-03-23T11:00:46;1.00;;;0.73;;
74245;SDS011;62601;51.044;13.788;2024-03-23T11:03:48;0.73;;;0.60;;
74245;SDS011;62601;51.044;13.788;2024-03-23T11:05:49;0.73;;;0.50;;
74245;SDS011;62601;51.044;13.788;2024-03-23T11:08:09;0.90;;;0.60;;
74245;SDS011;62601;51.044;13.788;2024-03-23T11:10:30;0.80;;;0.70;;
74245;SDS011;62601;51.044;13.788;2024-03-23T11:12:50;1.45;;;0.70;;
74245;SDS011;62601;51.044;13.788;2024-03-23T11:15:11;1.00;;;0.65;;
74245;SDS011;62601;51.044;13.788;2024-03-23T11:17:31;1.20;;;0.90;;
74245;SDS011;62601;51.044;13.788;2024-03-23T11:19:55;0.52;;;0.52;;
74245;SDS011;62601;51.044;13.788;2024-03-23T11:22:16;0.90;;;0.60;;
74245;SDS011;62601;51.044;13.788;2024-03-23T11:24:56;10.77;;;8.20;;
74245;SDS011;62601;51.044;13.788;2024-03-23T11:27:16;1.23;;;0.80;;
74245;SDS011;62601;51.044;13.788;2024-03-23T11:29:36;0.82;;;0.60;;
74245;SDS011;62601;51.044;13.788;2024-03-23T11:31:56;0.60;;;0.50;;
74245;SDS011;62601;51.044;13.788;2024-03-23T11:34:16;0.60;;;0.52;;
74245;SDS011;62601;51.044;13.788;2024-03-23T11:36:36;2.03;;;0.88;;
74245;SDS011;62601;51.044;13.788;2024-03-23T11:38:56;1.02;;;0.68;;
74245;SDS011;62601;51.044;13.788;2024-03-23T11:41:16;0.50;;;0.50;;
74245;SDS011;62601;51.044;13.788;2024-03-23T11:43:37;0.60;;;0.60;;
74245;SDS011;62601;51.044;13.788;2024-03-23T11:45:57;0.93;;;0.60;;
74245;SDS011;62601;51.044;13.788;2024-03-23T11:48:18;1.25;;;0.60;;
74245;SDS011;62601;51.044;13.788;2024-03-23T11:50:42;1.08;;;0.70;;
74245;SDS011;62601;51.044;13.788;2024-03-23T11:53:12;3.70;;;2.60;;
74245;SDS011;62601;51.044;13.788;2024-03-23T11:56:06;1.02;;;0.90;;
74245;SDS011;62601;51.044;13.788;2024-03-23T11:58:20;0.90;;;0.70;;
74245;SDS011;62601;51.044;13.788;2024-03-23T12:00:40;1.23;;;0.63;;
74245;SDS011;62601;51.044;13.788;2024-03-23T12:03:01;1.95;;;0.80;;
74245;SDS011;62601;51.044;13.788;2024-03-23T12:05:21;1.27;;;0.82;;
74245;SDS011;62601;51.044;13.788;2024-03-23T12:07:41;0.88;;;0.80;;
74245;SDS011;62601;51.044;13.788;2024-03-23T12:10:03;4.60;;;2.28;;
74245;SDS011;62601;51.044;13.788;2024-03-23T12:12:23;2.10;;;0.80;;
74245;SDS011;62601;51.044;13.788;2024-03-23T12:15:05;1.58;;;1.00;;
74245;SDS011;62601;51.044;13.788;2024-03-23T12:17:23;2.45;;;1.45;;
74245;SDS011;62601;51.044;13.788;2024-03-23T12:19:44;3.95;;;2.20;;
74245;SDS011;62601;51.044;13.788;2024-03-23T12:22:04;1.02;;;0.68;;
74245;SDS011;62601;51.044;13.788;2024-03-23T12:24:24;1.10;;;0.90;;
74245;SDS011;62601;51.044;13.788;2024-03-23T12:26:44;0.90;;;0.90;;
74245;SDS011;62601;51.044;13.788;2024-03-23T12:29:04;1.20;;;0.80;;
74245;SDS011;62601;51.044;13.788;2024-03-23T12:31:25;1.10;;;0.65;;
74245;SDS011;62601;51.044;13.788;2024-03-23T12:33:45;2.38;;;0.80;;
74245;SDS011;62601;51.044;13.788;2024-03-23T12:36:05;1.63;;;0.90;;
74245;SDS011;62601;51.044;13.788;2024-03-23T12:38:25;0.90;;;0.90;;
74245;SDS011;62601;51.044;13.788;2024-03-23T12:40:48;0.90;;;0.90;;
74245;SDS011;62601;51.044;13.788;2024-03-23T12:43:08;0.95;;;0.95;;
74245;SDS011;62601;51.044;13.788;2024-03-23T12:45:29;1.10;;;1.02;;
74245;SDS011;62601;51.044;13.788;2024-03-23T12:47:49;1.20;;;0.90;;
74245;SDS011;62601;51.044;13.788;2024-03-23T12:50:10;1.38;;;1.27;;
74245;SDS011;62601;51.044;13.788;2024-03-23T12:52:30;1.70;;;1.30;;
74245;SDS011;62601;51.044;13.788;2024-03-23T12:54:50;1.50;;;1.40;;
74245;SDS011;62601;51.044;13.788;2024-03-23T12:57:11;1.80;;;1.70;;
74245;SDS011;62601;51.044;13.788;2024-03-23T12:59:31;1.55;;;1.45;;
74245;SDS011;62601;51.044;13.788;2024-03-23T13:01:51;1.77;;;1.67;;
74245;SDS011;62601;51.044;13.788;2024-03-23T13:04:11;2.20;;;2.00;;
74245;SDS011;62601;51.044;13.788;2024-03-23T13:06:31;1.98;;;1.77;;
74245;SDS011;62601;51.044;13.788;2024-03-23T13:08:51;3.00;;;2.70;;
74245;SDS011;62601;51.044;13.788;2024-03-23T13:11:12;2.60;;;2.40;;
74245;SDS011;62601;51.044;13.788;2024-03-23T13:13:32;2.78;;;2.58;;
74245;SDS011;62601;51.044;13.788;2024-03-23T13:15:52;2.80;;;2.60;;
74245;SDS011;62601;51.044;13.788;2024-03-23T13:18:12;2.10;;;2.00;;
74245;SDS011;62601;51.044;13.788;2024-03-23T13:20:35;2.80;;;2.55;;
74245;SDS011;62601;51.044;13.788;2024-03-23T13:22:55;2.40;;;2.30;;
74245;SDS011;62601;51.044;13.788;2024-03-23T13:25:15;3.17;;;2.88;;
74245;SDS011;62601;51.044;13.788;2024-03-23T13:27:35;3.15;;;2.85;;
74245;SDS011;62601;51.044;13.788;2024-03-23T13:29:55;2.88;;;2.00;;
74245;SDS011;62601;51.044;13.788;2024-03-23T13:32:15;2.17;;;2.00;;
74245;SDS011;62601;51.044;13.788;2024-03-23T13:34:35;2.20;;;2.00;;
74245;SDS011;62601;51.044;13.788;2024-03-23T13:36:55;4.53;;;2.35;;
74245;SDS011;62601;51.044;13.788;2024-03-23T13:39:16;2.35;;;2.10;;
74245;SDS011;62601;51.044;13.788;2024-03-23T13:41:39;5.75;;;4.82;;
74245;SDS011;62601;51.044;13.788;2024-03-23T13:43:59;2.55;;;2.33;;
74245;SDS011;62601;51.044;13.788;2024-03-23T13:46:20;2.08;;;1.88;;
74245;SDS011;62601;51.044;13.788;2024-03-23T13:48:40;2.40;;;1.80;;
74245;SDS011;62601;51.044;13.788;2024-03-23T13:51:00;2.90;;;1.90;;
74245;SDS011;62601;51.044;13.788;2024-03-23T13:53:20;2.67;;;1.95;;
74245;SDS011;62601;51.044;13.788;2024-03-23T13:55:47;2.58;;;2.00;;
74245;SDS011;62601;51.044;13.788;2024-03-23T13:58:07;3.15;;;1.50;;
74245;SDS011;62601;51.044;13.788;2024-03-23T14:00:27;1.95;;;1.40;;
74245;SDS011;62601;51.044;13.788;2024-03-23T14:02:47;4.40;;;1.60;;
74245;SDS011;62601;51.044;13.788;2024-03-23T14:05:07;3.95;;;1.90;;
74245;SDS011;62601;51.044;13.788;2024-03-23T14:07:27;2.05;;;1.85;;
74245;SDS011;62601;51.044;13.788;2024-03-23T14:09:47;2.45;;;1.70;;
74245;SDS011;62601;51.044;13.788;2024-03-23T14:12:07;2.50;;;1.75;;
74245;SDS011;62601;51.044;13.788;2024-03-23T14:14:27;6.85;;;2.88;;
74245;SDS011;62601;51.044;13.788;2024-03-23T14:16:48;6.72;;;1.70;;
74245;SDS011;62601;51.044;13.788;2024-03-23T14:19:08;3.90;;;1.90;;
74245;SDS011;62601;51.044;13.788;2024-03-23T14:21:28;3.70;;;1.27;;
74245;SDS011;62601;51.044;13.788;2024-03-23T14:23:48;1.33;;;1.23;;
74245;SDS011;62601;51.044;13.788;2024-03-23T14:26:08;7.93;;;1.38;;
74245;SDS011;62601;51.044;13.788;2024-03-23T14:28:28;5.05;;;1.60;;
74245;SDS011;62601;51.044;13.788;2024-03-23T14:30:49;2.97;;;1.20;;
74245;SDS011;62601;51.044;13.788;2024-03-23T14:33:09;4.47;;;1.80;;
74245;SDS011;62601;51.044;13.788;2024-03-23T14:35:29;5.88;;;1.50;;
74245;SDS011;62601;51.044;13.788;2024-03-23T14:37:49;4.38;;;2.00;;
74245;SDS011;62601;51.044;13.788;2024-03-23T14:40:09;5.15;;;1.60;;